Clifford Maersk — OYRO2 — position and weather

sailwx.info

Track history (hours):
 
Tides and Currents Weather Stations Pressure Air Temp Water Temp Dewpoint Dewpoint Depression Visibility Wind Speed Wind Dir Waves Ship Positions

Clifford Maersk

Last reported at 2017-Feb-13 10:32 UTC. Time now 2017-Feb-26 14:44 UTC.
Position N 36°40' W 128°41'.
Warning: this ship's position is 13 days out of date.

Type: Cargo ship. MMSI: 219840000.

Date/timePositionNaut miles runAvg speedWind from/ knotsBaromVisibWave heightAir tempDewpointWater temp
2017-Feb-13 10:32N 36°40' W 128°41'4811.6
2017-Feb-13 06:21N 36°06' W 127°57'1111.6
2017-Feb-13 05:26N 35°59' W 127°48'16911.2
2017-Feb-12 14:21N 33°52' W 125°32'810.1
2017-Feb-12 13:33N 33°45' W 125°26'1110.1
2017-Feb-12 12:30N 33°37' W 125°18'41610.6
2017-Feb-10 21:19N 28°46' W 119°29'911.6
2017-Feb-10 20:32N 28°41' W 119°21'1111.4
2017-Feb-10 19:32N 28°34' W 119°10'1311.5
2017-Feb-10 18:24N 28°26' W 118°59'2211.7
2017-Feb-10 16:29N 28°12' W 118°39'3811.9
2017-Feb-10 13:15N 27°49' W 118°04'8412.1
2017-Feb-10 06:18N 26°55' W 116°52'2412.3
2017-Feb-10 04:23N 26°40' W 116°31'3711.9
2017-Feb-10 01:14N 26°17' W 115°59'  
Track history (hours):
 
Tides and Currents Weather Stations Pressure Air Temp Water Temp Dewpoint Dewpoint Depression Visibility Wind Speed Wind Dir Waves Ship Positions

Clifford Maersk

Last reported at 2017-Feb-13 10:32 UTC. Time now 2017-Feb-26 14:44 UTC.
Position N 36°40' W 128°41'.
Warning: this ship's position is 13 days out of date.

Type: Cargo ship. MMSI: 219840000.

Date/timePositionNaut miles runAvg speedWind from/ knotsBaromVisibWave heightAir tempDewpointWater temp
2017-Feb-13 10:32N 36°40' W 128°41'4811.6
2017-Feb-13 06:21N 36°06' W 127°57'1111.6
2017-Feb-13 05:26N 35°59' W 127°48'16911.2
2017-Feb-12 14:21N 33°52' W 125°32'810.1
2017-Feb-12 13:33N 33°45' W 125°26'1110.1
2017-Feb-12 12:30N 33°37' W 125°18'41610.6
2017-Feb-10 21:19N 28°46' W 119°29'911.6
2017-Feb-10 20:32N 28°41' W 119°21'1111.4
2017-Feb-10 19:32N 28°34' W 119°10'1311.5
2017-Feb-10 18:24N 28°26' W 118°59'2211.7
2017-Feb-10 16:29N 28°12' W 118°39'3811.9
2017-Feb-10 13:15N 27°49' W 118°04'8412.1
2017-Feb-10 06:18N 26°55' W 116°52'2412.3
2017-Feb-10 04:23N 26°40' W 116°31'3711.9
2017-Feb-10 01:14N 26°17' W 115°59'  

Dump ship's entire track history